createdAt,value
2022-10-07T00:01:06.282Z,14.18
2022-10-07T00:03:34.748Z,14.12
2022-10-07T00:06:19.399Z,14.04
2022-10-07T00:08:53.080Z,14.02
2022-10-07T00:11:26.056Z,13.94
2022-10-07T00:13:59.453Z,13.90
2022-10-07T00:16:34.854Z,13.88
2022-10-07T00:19:07.544Z,13.84
2022-10-07T00:21:37.525Z,13.76
2022-10-07T00:24:07.370Z,13.73
2022-10-07T00:26:36.779Z,13.75
2022-10-07T00:29:07.000Z,13.77
2022-10-07T00:31:38.227Z,13.77
2022-10-07T00:34:05.954Z,13.74
2022-10-07T00:36:37.466Z,13.73
2022-10-07T00:39:14.142Z,13.75
2022-10-07T00:41:51.856Z,13.70
2022-10-07T00:44:41.798Z,13.68
2022-10-07T00:47:29.708Z,13.64
2022-10-07T00:50:05.694Z,13.69
2022-10-07T00:52:42.048Z,13.68
2022-10-07T00:55:17.520Z,13.71
2022-10-07T00:57:47.955Z,13.72
2022-10-07T01:00:15.770Z,13.69
2022-10-07T01:02:44.383Z,13.54
2022-10-07T01:05:14.129Z,13.44
2022-10-07T01:07:47.944Z,13.41
2022-10-07T01:10:19.909Z,13.36
2022-10-07T01:13:19.586Z,13.38
2022-10-07T01:16:17.382Z,13.42
2022-10-07T01:19:59.694Z,13.48
2022-10-07T01:22:49.924Z,13.35
2022-10-07T01:25:51.140Z,13.27
2022-10-07T01:28:47.622Z,13.23
2022-10-07T01:31:19.387Z,13.21
2022-10-07T01:33:48.287Z,13.18
2022-10-07T01:36:18.112Z,13.13
2022-10-07T01:38:56.686Z,13.16
2022-10-07T01:41:24.300Z,13.25
2022-10-07T01:43:54.996Z,13.23
2022-10-07T01:46:27.124Z,13.10
2022-10-07T01:48:57.818Z,13.02
2022-10-07T01:51:30.337Z,12.94
2022-10-07T01:54:32.854Z,12.92
2022-10-07T01:57:53.830Z,12.85
2022-10-07T02:00:21.261Z,12.87
2022-10-07T02:03:29.271Z,12.83
2022-10-07T02:06:24.527Z,12.82
2022-10-07T02:08:55.880Z,12.88
2022-10-07T02:11:37.667Z,12.80
2022-10-07T02:14:14.892Z,12.73
2022-10-07T02:16:48.226Z,12.70
2022-10-07T02:19:47.616Z,12.69
2022-10-07T02:22:17.549Z,12.71
2022-10-07T02:24:47.705Z,12.69
2022-10-07T02:27:23.221Z,12.67
2022-10-07T02:30:02.097Z,12.62
2022-10-07T02:32:31.993Z,12.66
2022-10-07T02:35:07.084Z,12.75
2022-10-07T02:37:39.899Z,12.67
2022-10-07T02:40:12.110Z,12.68
2022-10-07T02:43:53.176Z,12.72
2022-10-07T02:47:03.652Z,12.73
2022-10-07T02:49:38.377Z,12.66
2022-10-07T02:52:12.292Z,12.67
2022-10-07T02:54:52.337Z,12.60
2022-10-07T02:57:21.790Z,12.54
2022-10-07T02:59:51.468Z,12.52
2022-10-07T03:02:51.340Z,12.51
2022-10-07T03:05:21.371Z,12.48
2022-10-07T03:07:56.350Z,12.40
2022-10-07T03:10:24.137Z,12.38
2022-10-07T03:12:51.449Z,12.37
2022-10-07T03:15:20.111Z,12.38
2022-10-07T03:17:47.943Z,12.41
2022-10-07T03:20:15.523Z,12.44
2022-10-07T03:22:44.759Z,12.56
2022-10-07T03:25:15.394Z,12.58
2022-10-07T03:27:43.571Z,12.57
2022-10-07T03:30:12.098Z,12.55
2022-10-07T03:32:44.128Z,12.55
2022-10-07T03:35:11.369Z,12.59
2022-10-07T03:37:39.121Z,12.50
2022-10-07T03:40:09.996Z,12.47
2022-10-07T03:42:38.105Z,12.41
2022-10-07T03:45:06.989Z,12.50
2022-10-07T03:47:34.217Z,12.50
2022-10-07T03:50:01.700Z,12.51
2022-10-07T03:52:31.365Z,12.52
2022-10-07T03:54:58.565Z,12.43
2022-10-07T03:57:44.861Z,12.34
2022-10-07T04:00:13.403Z,12.30
2022-10-07T04:02:49.884Z,12.27
2022-10-07T04:05:21.443Z,12.25
2022-10-07T04:07:50.501Z,12.26
2022-10-07T04:10:20.322Z,12.25
2022-10-07T04:12:49.722Z,12.21
2022-10-07T04:15:17.805Z,12.20
2022-10-07T04:17:48.125Z,12.18
2022-10-07T04:20:18.305Z,12.16
2022-10-07T04:22:45.978Z,12.13
2022-10-07T04:25:32.293Z,12.10
2022-10-07T04:28:08.425Z,12.08
2022-10-07T04:30:40.538Z,12.15
2022-10-07T04:33:09.829Z,12.19
2022-10-07T04:35:39.588Z,12.23
2022-10-07T04:38:13.173Z,12.19
2022-10-07T04:40:46.644Z,12.18
2022-10-07T04:43:19.356Z,12.21
2022-10-07T04:46:02.237Z,12.18
2022-10-07T04:48:29.792Z,12.10
2022-10-07T04:51:07.740Z,12.07
2022-10-07T04:53:37.566Z,12.05
2022-10-07T04:56:06.412Z,11.94
2022-10-07T04:58:33.956Z,11.88
2022-10-07T05:01:09.224Z,11.94
2022-10-07T05:03:40.452Z,11.90
2022-10-07T05:06:09.475Z,11.93
2022-10-07T05:08:42.384Z,11.96
2022-10-07T05:11:11.020Z,11.95
2022-10-07T05:13:46.346Z,11.89
2022-10-07T05:16:13.966Z,11.84
2022-10-07T05:18:41.185Z,11.90
2022-10-07T05:21:12.057Z,11.96
2022-10-07T05:23:43.517Z,12.06
2022-10-07T05:26:15.231Z,12.10
2022-10-07T05:28:48.640Z,12.03
2022-10-07T05:31:20.281Z,11.96
2022-10-07T05:33:52.431Z,11.95
2022-10-07T05:36:24.942Z,11.95
2022-10-07T05:38:57.930Z,11.96
2022-10-07T05:41:30.764Z,12.04
2022-10-07T05:44:01.430Z,12.19
2022-10-07T05:46:28.813Z,12.16
2022-10-07T05:48:58.676Z,12.17
2022-10-07T05:51:31.510Z,12.15
2022-10-07T05:54:00.342Z,12.14
2022-10-07T05:56:36.805Z,12.07
2022-10-07T05:59:04.650Z,12.05
2022-10-07T06:01:32.592Z,12.08
2022-10-07T06:04:07.958Z,12.22
2022-10-07T06:06:38.559Z,12.32
2022-10-07T06:09:27.690Z,12.42
2022-10-07T06:12:14.920Z,12.48
2022-10-07T06:14:42.583Z,12.53
2022-10-07T06:17:10.411Z,12.50
2022-10-07T06:19:38.786Z,12.48
2022-10-07T06:22:06.569Z,12.55
2022-10-07T06:24:36.627Z,12.63
2022-10-07T06:27:04.112Z,12.72
2022-10-07T06:29:32.107Z,12.83
2022-10-07T06:32:00.353Z,12.91
2022-10-07T06:34:27.926Z,13.03
2022-10-07T06:36:56.162Z,13.10
2022-10-07T06:39:23.855Z,13.17
2022-10-07T06:41:54.449Z,13.30
2022-10-07T06:44:44.785Z,13.43
2022-10-07T06:47:16.545Z,13.48
2022-10-07T06:49:45.638Z,13.55
2022-10-07T06:52:13.658Z,13.65
2022-10-07T06:54:42.845Z,13.70
2022-10-07T06:57:40.435Z,13.76
2022-10-07T07:00:01.050Z,13.84
2022-10-07T07:02:30.480Z,13.95
2022-10-07T07:04:58.806Z,14.06
2022-10-07T07:07:27.347Z,14.13
2022-10-07T07:09:55.015Z,14.23
2022-10-07T07:12:25.257Z,14.34
2022-10-07T07:14:53.876Z,14.51
2022-10-07T07:17:22.037Z,14.60
2022-10-07T07:19:49.337Z,14.69
2022-10-07T07:22:17.717Z,14.79
2022-10-07T07:24:45.602Z,14.88
2022-10-07T07:27:15.086Z,15.01
2022-10-07T07:29:43.691Z,15.07
2022-10-07T07:32:12.082Z,15.19
2022-10-07T07:34:42.501Z,15.25
2022-10-07T07:37:14.162Z,15.30
2022-10-07T07:39:46.857Z,15.35
2022-10-07T07:42:16.857Z,15.50
2022-10-07T07:44:44.361Z,15.58
2022-10-07T07:47:18.472Z,15.62
2022-10-07T07:49:49.485Z,15.79
2022-10-07T07:52:29.548Z,15.93
2022-10-07T07:54:59.134Z,16.07
2022-10-07T07:57:28.288Z,16.09
2022-10-07T07:59:58.232Z,16.10
2022-10-07T08:02:26.678Z,16.15
2022-10-07T08:04:54.578Z,16.21
2022-10-07T08:07:22.986Z,16.29
2022-10-07T08:09:51.006Z,16.32
2022-10-07T08:12:21.035Z,16.46
2022-10-07T08:14:49.248Z,16.53
2022-10-07T08:17:17.514Z,16.55
2022-10-07T08:19:45.050Z,16.64
2022-10-07T08:22:17.464Z,16.77
2022-10-07T08:24:47.064Z,16.99
2022-10-07T08:27:15.781Z,17.15
2022-10-07T08:29:42.960Z,17.21
2022-10-07T08:32:11.228Z,17.14
2022-10-07T08:34:39.721Z,17.25
2022-10-07T08:37:06.993Z,17.28
2022-10-07T08:39:34.267Z,17.31
2022-10-07T08:42:42.508Z,17.51
2022-10-07T08:45:27.492Z,17.59
2022-10-07T08:47:57.483Z,17.61
2022-10-07T08:51:12.569Z,17.76
2022-10-07T08:53:40.191Z,17.81
2022-10-07T08:56:13.040Z,17.75
2022-10-07T08:59:04.291Z,17.80
2022-10-07T09:02:06.140Z,18.01
2022-10-07T09:05:08.584Z,18.14
2022-10-07T09:07:50.160Z,18.14
2022-10-07T09:10:34.359Z,18.18
2022-10-07T09:13:14.181Z,18.34
2022-10-07T09:16:00.577Z,18.53
2022-10-07T09:18:50.862Z,18.49
2022-10-07T09:21:48.238Z,18.50
2022-10-07T09:24:30.389Z,18.70
2022-10-07T09:27:23.031Z,18.82
2022-10-07T09:29:51.411Z,18.92
2022-10-07T09:32:19.983Z,18.98
2022-10-07T09:34:47.840Z,18.90
2022-10-07T09:37:34.936Z,18.83
2022-10-07T09:41:01.258Z,18.89
2022-10-07T09:43:31.876Z,19.10
2022-10-07T09:46:00.841Z,19.17
2022-10-07T09:48:33.714Z,19.30
2022-10-07T09:51:21.661Z,19.44
2022-10-07T09:54:05.179Z,19.51
2022-10-07T09:56:46.458Z,19.63
2022-10-07T09:59:29.718Z,19.48
2022-10-07T10:02:15.808Z,19.73
2022-10-07T10:04:57.368Z,19.80
2022-10-07T10:07:37.427Z,19.95
2022-10-07T10:10:22.457Z,20.05
2022-10-07T10:12:53.611Z,20.37
2022-10-07T10:15:35.872Z,20.33
2022-10-07T10:18:33.911Z,20.38
2022-10-07T10:21:29.842Z,20.52
2022-10-07T10:24:01.920Z,20.54
2022-10-07T10:27:07.134Z,20.49
2022-10-07T10:30:05.664Z,20.43
2022-10-07T10:33:25.753Z,20.58
2022-10-07T10:36:12.714Z,20.93
2022-10-07T10:39:04.541Z,21.06
2022-10-07T10:41:52.211Z,21.02
2022-10-07T10:44:42.576Z,21.31
2022-10-07T10:47:25.534Z,21.22
2022-10-07T10:50:10.816Z,21.17
2022-10-07T10:53:08.337Z,21.38
2022-10-07T10:56:02.399Z,21.74
2022-10-07T10:59:21.448Z,22.14
2022-10-07T11:02:29.463Z,21.98
2022-10-07T11:05:34.241Z,21.91
2022-10-07T11:08:27.089Z,22.37
2022-10-07T11:11:03.028Z,21.73
2022-10-07T11:13:54.368Z,21.75
2022-10-07T11:16:38.705Z,21.63
2022-10-07T11:19:35.924Z,21.99
2022-10-07T11:22:04.249Z,22.11
2022-10-07T11:24:57.009Z,22.27
2022-10-07T11:27:30.067Z,22.14
2022-10-07T11:30:11.153Z,21.99
2022-10-07T11:32:56.736Z,22.10
2022-10-07T11:35:33.220Z,21.80
2022-10-07T11:38:15.181Z,21.79
2022-10-07T11:41:02.546Z,22.01
2022-10-07T11:43:53.192Z,22.12
2022-10-07T11:46:33.054Z,22.54
2022-10-07T11:49:32.233Z,22.56
2022-10-07T11:52:34.725Z,22.88
2022-10-07T11:55:12.089Z,22.35
2022-10-07T11:57:43.773Z,22.26
2022-10-07T12:00:41.815Z,22.13
2022-10-07T12:03:19.458Z,22.48
2022-10-07T12:05:49.925Z,22.77
2022-10-07T12:08:41.617Z,23.08
2022-10-07T12:11:12.395Z,23.19
2022-10-07T12:13:51.098Z,23.10
2022-10-07T12:16:54.232Z,22.62
2022-10-07T12:19:24.019Z,22.51
2022-10-07T12:21:59.480Z,22.57
2022-10-07T12:24:28.040Z,22.87
2022-10-07T12:26:59.346Z,23.14
2022-10-07T12:29:44.547Z,23.15
2022-10-07T12:32:52.065Z,23.19
2022-10-07T12:35:53.019Z,23.25
2022-10-07T12:38:28.054Z,23.27
2022-10-07T12:41:11.512Z,23.19
2022-10-07T12:44:00.506Z,23.33
2022-10-07T12:46:49.184Z,23.66
2022-10-07T12:49:48.902Z,23.63
2022-10-07T12:52:44.355Z,23.43
2022-10-07T12:55:40.421Z,23.60
2022-10-07T12:59:28.525Z,23.58
2022-10-07T13:02:24.192Z,23.59
2022-10-07T13:05:39.255Z,23.43
2022-10-07T13:08:49.335Z,23.57
2022-10-07T13:12:03.060Z,23.79
2022-10-07T13:14:50.098Z,24.05
2022-10-07T13:18:26.838Z,24.12
2022-10-07T13:21:22.842Z,24.22
2022-10-07T13:23:55.768Z,24.00
2022-10-07T13:26:26.714Z,24.10
2022-10-07T13:29:00.345Z,24.18
2022-10-07T13:31:34.529Z,24.49
2022-10-07T13:34:17.968Z,24.61
2022-10-07T13:36:45.212Z,24.80
2022-10-07T13:39:23.140Z,24.80
2022-10-07T13:41:57.839Z,24.78
2022-10-07T13:44:31.747Z,24.93
2022-10-07T13:47:03.080Z,24.91
2022-10-07T13:49:43.440Z,24.69
2022-10-07T13:52:33.904Z,24.54
2022-10-07T13:55:01.280Z,24.84
2022-10-07T13:57:31.385Z,25.00
2022-10-07T14:00:00.059Z,25.15
2022-10-07T14:02:28.293Z,25.05
2022-10-07T14:05:14.383Z,25.14
2022-10-07T14:07:42.524Z,25.26
2022-10-07T14:10:11.089Z,25.33
2022-10-07T14:12:49.531Z,25.46
2022-10-07T14:15:31.427Z,25.20
2022-10-07T14:18:08.998Z,25.16
2022-10-07T14:21:08.808Z,25.01
2022-10-07T14:23:37.854Z,25.12
2022-10-07T14:26:18.955Z,25.21
2022-10-07T14:28:47.237Z,25.13
2022-10-07T14:31:39.976Z,25.46
2022-10-07T14:34:35.262Z,25.60
2022-10-07T14:37:28.421Z,25.33
2022-10-07T14:39:56.826Z,24.99
2022-10-07T14:42:36.189Z,25.14
2022-10-07T14:45:09.723Z,25.25
2022-10-07T14:47:41.325Z,25.51
2022-10-07T14:50:12.078Z,26.10
2022-10-07T14:52:49.047Z,25.95
2022-10-07T14:55:29.483Z,26.52
2022-10-07T14:57:56.805Z,28.20
2022-10-07T15:00:29.408Z,29.04
2022-10-07T15:02:57.734Z,29.75
2022-10-07T15:05:26.383Z,30.32
2022-10-07T15:07:53.798Z,30.57
2022-10-07T15:10:26.205Z,30.77
2022-10-07T15:12:55.999Z,30.95
2022-10-07T15:15:23.203Z,30.02
2022-10-07T15:17:50.503Z,30.12
2022-10-07T15:20:18.555Z,29.54
2022-10-07T15:22:46.159Z,29.26
2022-10-07T15:25:18.007Z,29.75
2022-10-07T15:27:45.257Z,29.34
2022-10-07T15:30:13.458Z,29.20
2022-10-07T15:32:40.670Z,29.37
2022-10-07T15:35:08.612Z,29.43
2022-10-07T15:37:35.946Z,29.77
2022-10-07T15:40:06.561Z,29.67
2022-10-07T15:42:33.834Z,29.52
2022-10-07T15:45:01.098Z,29.37
2022-10-07T15:47:28.298Z,29.44
2022-10-07T15:49:55.564Z,29.67
2022-10-07T15:52:22.869Z,29.49
2022-10-07T15:54:50.997Z,29.71
2022-10-07T15:57:18.214Z,29.12
2022-10-07T15:59:45.655Z,29.32
2022-10-07T16:02:17.328Z,28.36
2022-10-07T16:04:48.157Z,27.47
2022-10-07T16:07:16.193Z,27.01
2022-10-07T16:09:43.668Z,26.40
2022-10-07T16:12:11.279Z,26.09
2022-10-07T16:14:38.860Z,25.66
2022-10-07T16:17:06.158Z,24.96
2022-10-07T16:19:33.728Z,24.35
2022-10-07T16:22:01.144Z,24.13
2022-10-07T16:24:34.009Z,23.77
2022-10-07T16:27:02.371Z,23.41
2022-10-07T16:29:48.411Z,23.12
2022-10-07T16:32:15.790Z,22.81
2022-10-07T16:34:44.383Z,22.49
2022-10-07T16:37:12.461Z,22.34
2022-10-07T16:39:39.649Z,22.12
2022-10-07T16:42:08.573Z,21.91
2022-10-07T16:44:35.849Z,21.70
2022-10-07T16:47:03.258Z,21.53
2022-10-07T16:49:30.590Z,21.33
2022-10-07T16:51:58.403Z,21.06
2022-10-07T16:54:28.524Z,20.85
2022-10-07T16:56:56.349Z,20.70
2022-10-07T16:59:25.524Z,20.58
2022-10-07T17:01:56.843Z,20.46
2022-10-07T17:04:25.319Z,20.34
2022-10-07T17:06:53.774Z,20.26
2022-10-07T17:09:24.365Z,20.14
2022-10-07T17:11:51.957Z,19.99
2022-10-07T17:14:21.630Z,19.92
2022-10-07T17:16:56.946Z,19.86
2022-10-07T17:19:28.205Z,19.74
2022-10-07T17:21:59.164Z,19.61
2022-10-07T17:24:26.881Z,19.50
2022-10-07T17:26:55.207Z,19.36
2022-10-07T17:29:25.951Z,19.24
2022-10-07T17:31:53.969Z,19.16
2022-10-07T17:34:22.496Z,19.11
2022-10-07T17:36:50.644Z,19.02
2022-10-07T17:39:21.474Z,18.91
2022-10-07T17:41:49.220Z,18.80
2022-10-07T17:44:16.741Z,18.67
2022-10-07T17:46:44.260Z,18.61
2022-10-07T17:49:15.240Z,18.53
2022-10-07T17:51:43.954Z,18.47
2022-10-07T17:54:14.031Z,18.41
2022-10-07T17:56:45.625Z,18.31
2022-10-07T17:59:14.302Z,18.20
2022-10-07T18:01:42.148Z,18.17
2022-10-07T18:04:23.724Z,18.13
2022-10-07T18:06:52.136Z,18.09
2022-10-07T18:09:22.138Z,18.05
2022-10-07T18:12:08.075Z,18.02
2022-10-07T18:14:54.541Z,17.97
2022-10-07T18:17:24.327Z,17.93
2022-10-07T18:19:52.176Z,17.83
2022-10-07T18:22:20.026Z,17.73
2022-10-07T18:24:47.300Z,17.63
2022-10-07T18:27:14.798Z,17.57
2022-10-07T18:29:42.009Z,17.48
2022-10-07T18:32:09.382Z,17.41
2022-10-07T18:34:36.993Z,17.31
2022-10-07T18:37:04.332Z,17.24
2022-10-07T18:39:33.038Z,17.18
2022-10-07T18:42:00.288Z,17.14
2022-10-07T18:44:27.785Z,17.16
2022-10-07T18:46:55.179Z,17.15
2022-10-07T18:49:23.517Z,17.09
2022-10-07T18:51:51.237Z,17.04
2022-10-07T18:54:21.769Z,16.99
2022-10-07T18:56:51.005Z,16.89
2022-10-07T18:59:20.195Z,16.78
2022-10-07T19:01:50.858Z,16.76
2022-10-07T19:04:19.895Z,16.67
2022-10-07T19:06:48.505Z,16.59
2022-10-07T19:09:20.718Z,16.53
2022-10-07T19:11:49.235Z,16.49
2022-10-07T19:14:16.868Z,16.42
2022-10-07T19:16:49.118Z,16.39
2022-10-07T19:19:23.901Z,16.38
2022-10-07T19:21:55.264Z,16.37
2022-10-07T19:24:45.893Z,16.33
2022-10-07T19:27:13.184Z,16.29
2022-10-07T19:29:40.752Z,16.18
2022-10-07T19:32:08.923Z,16.11
2022-10-07T19:34:36.507Z,16.08
2022-10-07T19:37:04.117Z,16.06
2022-10-07T19:39:31.751Z,16.01
2022-10-07T19:41:59.514Z,15.94
2022-10-07T19:44:27.236Z,15.85
2022-10-07T19:46:54.449Z,15.78
2022-10-07T19:49:22.302Z,15.80
2022-10-07T19:51:49.841Z,15.81
2022-10-07T19:54:17.676Z,15.78
2022-10-07T19:56:45.346Z,15.74
2022-10-07T19:59:15.058Z,15.69
2022-10-07T20:01:47.363Z,15.64
2022-10-07T20:04:20.714Z,15.61
2022-10-07T20:06:48.348Z,15.61
2022-10-07T20:09:19.327Z,15.55
2022-10-07T20:11:47.055Z,15.50
2022-10-07T20:14:16.039Z,15.46
2022-10-07T20:16:44.068Z,15.45
2022-10-07T20:19:18.650Z,15.57
2022-10-07T20:21:47.946Z,15.70
2022-10-07T20:24:16.844Z,15.77
2022-10-07T20:26:45.250Z,15.72
2022-10-07T20:29:15.916Z,15.65
2022-10-07T20:31:44.324Z,15.54
2022-10-07T20:34:19.966Z,15.52
2022-10-07T20:36:47.265Z,15.49
2022-10-07T20:39:37.552Z,15.50
2022-10-07T20:42:21.202Z,15.49
2022-10-07T20:44:50.161Z,15.46
2022-10-07T20:47:19.222Z,15.43
2022-10-07T20:49:48.447Z,15.40
2022-10-07T20:52:24.353Z,15.39
2022-10-07T20:54:53.415Z,15.29
2022-10-07T20:57:28.523Z,15.25
2022-10-07T20:59:56.109Z,15.16
2022-10-07T21:02:25.590Z,15.11
2022-10-07T21:04:53.545Z,15.10
2022-10-07T21:07:21.447Z,15.05
2022-10-07T21:09:48.760Z,15.02
2022-10-07T21:12:18.274Z,15.07
2022-10-07T21:14:48.337Z,15.10
2022-10-07T21:17:16.672Z,15.10
2022-10-07T21:19:43.982Z,15.10
2022-10-07T21:22:11.363Z,15.13
2022-10-07T21:24:38.822Z,15.13
2022-10-07T21:27:07.764Z,15.08
2022-10-07T21:29:40.094Z,15.01
2022-10-07T21:32:10.572Z,14.99
2022-10-07T21:34:38.580Z,14.96
2022-10-07T21:37:05.920Z,14.90
2022-10-07T21:39:33.904Z,14.87
2022-10-07T21:42:02.048Z,14.79
2022-10-07T21:44:29.452Z,14.78
2022-10-07T21:46:59.856Z,14.76
2022-10-07T21:49:27.201Z,14.75
2022-10-07T21:51:54.872Z,14.72
2022-10-07T21:54:22.174Z,14.71
2022-10-07T21:56:50.088Z,14.67
2022-10-07T21:59:17.376Z,14.67
2022-10-07T22:01:44.625Z,14.63
2022-10-07T22:04:17.754Z,14.67
2022-10-07T22:07:04.658Z,14.63
2022-10-07T22:09:33.271Z,14.62
2022-10-07T22:12:00.937Z,14.65
2022-10-07T22:14:28.431Z,14.65
2022-10-07T22:16:55.912Z,14.50
2022-10-07T22:19:23.198Z,14.34
2022-10-07T22:21:50.589Z,14.25
2022-10-07T22:24:17.957Z,14.20
2022-10-07T22:26:48.002Z,14.21
2022-10-07T22:29:18.682Z,14.27
2022-10-07T22:31:47.352Z,14.30
2022-10-07T22:34:33.979Z,14.18
2022-10-07T22:37:02.002Z,14.11
2022-10-07T22:39:30.253Z,14.07
2022-10-07T22:41:58.604Z,13.98
2022-10-07T22:44:27.907Z,13.96
2022-10-07T22:46:57.101Z,13.98
2022-10-07T22:49:29.509Z,14.01
2022-10-07T22:51:59.691Z,14.00
2022-10-07T22:54:28.199Z,14.00
2022-10-07T22:56:55.652Z,14.04
2022-10-07T22:59:23.161Z,14.06
2022-10-07T23:01:50.605Z,14.05
2022-10-07T23:04:20.176Z,14.02
2022-10-07T23:06:48.279Z,14.00
2022-10-07T23:09:15.605Z,13.95
2022-10-07T23:11:42.777Z,13.83
2022-10-07T23:14:10.285Z,13.77
2022-10-07T23:16:37.646Z,13.73
2022-10-07T23:19:04.908Z,13.70
2022-10-07T23:21:35.033Z,13.62
2022-10-07T23:24:07.307Z,13.60
2022-10-07T23:26:36.992Z,13.59
2022-10-07T23:29:05.761Z,13.53
2022-10-07T23:31:33.636Z,13.43
2022-10-07T23:34:03.021Z,13.41
2022-10-07T23:36:31.730Z,13.45
2022-10-07T23:39:00.597Z,13.58
2022-10-07T23:41:30.745Z,13.54
2022-10-07T23:44:04.471Z,13.58
2022-10-07T23:46:35.020Z,13.56
2022-10-07T23:49:04.374Z,13.48
2022-10-07T23:51:33.616Z,13.41
2022-10-07T23:54:03.609Z,13.39
2022-10-07T23:56:32.681Z,13.43
2022-10-07T23:59:01.754Z,13.42
